Strona główna
METAR-TAF:

METAR-TAF

Lotnisko :

Albenga, Włochy

Szerokość geograficzna: 44-03N, Długość geograficzna: 008-07E, wysokość: 45 m

Aktualna obserwacja pogody

Raport powstał 22 minut temu, godzina 07:50 UTC
Cisza
Temperatura 27°C
Wilgotność 48%
Ciśnienie 1017 hPa
Widzialność 10 km lub więcej
Brak chmur poniżej 1500 m i brak chmur cumulonimbus

METAR: LIMG 050750Z 00000KT CAVOK 27/15 Q1017

czas: 10:12 (08:12 UTC)


TAF: brakujący

Obserwacja i prognoza pogody dla ponad 4000 lotnisk (raport METAR i TAF).

Dostępne stacje oznaczono żółtymi i czerwonymi punktami na mapie.

Najedź kursorem aby zobaczyć nazwę stacji.

Kliknij aby zobaczyć obserwacje i prognozy pogody.

Aby zmienić mapę: kliknij na zielony przycisk z czarnym krzyżykiem, aby powiększyć; na zielony przycisk z myślnikiem, aby pomniejszyć; na zielone strzałki, aby przejść do map sąsiednich.


METAR-TAF: